createdAt,value
2019-05-05T00:01:28.376Z,4.60
2019-05-05T00:04:06.737Z,4.70
2019-05-05T00:06:34.647Z,4.60
2019-05-05T00:09:02.612Z,4.40
2019-05-05T00:11:49.204Z,4.50
2019-05-05T00:14:24.742Z,4.40
2019-05-05T00:16:57.873Z,4.30
2019-05-05T00:19:32.509Z,4.40
2019-05-05T00:21:55.661Z,4.30
2019-05-05T00:24:24.439Z,4.40
2019-05-05T00:26:52.477Z,4.30
2019-05-05T00:29:20.595Z,4.20
2019-05-05T00:31:48.988Z,4.20
2019-05-05T00:34:16.894Z,4.10
2019-05-05T00:36:44.996Z,4.10
2019-05-05T00:39:14.922Z,4.00
2019-05-05T00:41:44.879Z,4.20
2019-05-05T00:44:12.796Z,3.90
2019-05-05T00:47:01.928Z,3.90
2019-05-05T00:49:45.637Z,3.80
2019-05-05T00:52:01.427Z,3.80
2019-05-05T00:54:29.314Z,3.90
2019-05-05T00:56:57.286Z,4.00
2019-05-05T00:59:27.764Z,4.00
2019-05-05T01:02:30.577Z,3.90
2019-05-05T01:05:15.256Z,3.70
2019-05-05T01:07:44.384Z,3.70
2019-05-05T01:10:14.285Z,3.60
2019-05-05T01:12:42.577Z,3.70
2019-05-05T01:15:10.933Z,3.80
2019-05-05T01:17:38.977Z,4.00
2019-05-05T01:20:07.223Z,4.20
2019-05-05T01:22:35.158Z,4.20
2019-05-05T01:25:05.407Z,4.20
2019-05-05T01:27:34.739Z,4.10
2019-05-05T01:30:04.771Z,4.00
2019-05-05T01:32:37.113Z,4.00
2019-05-05T01:35:05.444Z,4.00
2019-05-05T01:37:44.185Z,4.00
2019-05-05T01:40:37.719Z,4.00
2019-05-05T01:43:05.724Z,4.00
2019-05-05T01:45:34.736Z,3.90
2019-05-05T01:48:04.779Z,3.80
2019-05-05T01:50:34.773Z,3.80
2019-05-05T01:53:04.739Z,3.90
2019-05-05T01:55:34.695Z,3.90
2019-05-05T01:58:04.749Z,3.90
2019-05-05T02:00:34.797Z,3.90
2019-05-05T02:03:04.518Z,3.80
2019-05-05T02:05:34.892Z,3.70
2019-05-05T02:08:04.977Z,3.80
2019-05-05T02:10:34.699Z,3.80
2019-05-05T02:13:04.469Z,3.80
2019-05-05T02:15:34.391Z,3.70
2019-05-05T02:18:04.498Z,3.70
2019-05-05T02:21:05.145Z,3.70
2019-05-05T02:23:35.903Z,3.70
2019-05-05T02:26:05.395Z,3.70
2019-05-05T02:28:39.630Z,3.60
2019-05-05T02:31:30.663Z,3.50
2019-05-05T02:33:58.721Z,3.50
2019-05-05T02:36:26.769Z,3.50
2019-05-05T02:38:56.782Z,3.50
2019-05-05T02:41:25.519Z,3.40
2019-05-05T02:43:55.720Z,3.40
2019-05-05T02:46:48.255Z,3.40
2019-05-05T02:49:16.966Z,3.40
2019-05-05T02:51:46.484Z,3.40
2019-05-05T02:54:15.148Z,3.30
2019-05-05T02:56:46.395Z,3.40
2019-05-05T02:59:35.510Z,3.40
2019-05-05T03:02:07.296Z,3.40
2019-05-05T03:04:35.827Z,3.30
2019-05-05T03:07:04.720Z,3.30
2019-05-05T03:09:34.710Z,3.20
2019-05-05T03:12:04.738Z,3.30
2019-05-05T03:14:35.848Z,3.20
2019-05-05T03:17:10.081Z,3.20
2019-05-05T03:19:38.510Z,3.30
2019-05-05T03:22:07.015Z,3.30
2019-05-05T03:24:35.440Z,3.30
2019-05-05T03:27:03.920Z,3.10
2019-05-05T03:29:33.615Z,3.10
2019-05-05T03:32:05.178Z,3.00
2019-05-05T03:34:34.285Z,3.00
2019-05-05T03:37:04.250Z,2.90
2019-05-05T03:39:34.026Z,2.80
2019-05-05T03:42:25.248Z,2.80
2019-05-05T03:45:04.161Z,2.70
2019-05-05T03:47:33.712Z,2.90
2019-05-05T03:50:04.207Z,3.20
2019-05-05T03:52:34.594Z,3.20
2019-05-05T03:55:03.926Z,3.30
2019-05-05T03:57:33.804Z,3.40
2019-05-05T04:00:04.116Z,3.30
2019-05-05T04:02:46.465Z,3.30
2019-05-05T04:05:23.867Z,3.30
2019-05-05T04:07:51.928Z,3.40
2019-05-05T04:10:19.828Z,3.40
2019-05-05T04:12:47.880Z,3.50
2019-05-05T04:15:16.297Z,3.40
2019-05-05T04:17:53.766Z,3.40
2019-05-05T04:20:41.618Z,3.40
2019-05-05T04:23:09.711Z,3.40
2019-05-05T04:25:37.824Z,3.40
2019-05-05T04:28:05.940Z,3.40
2019-05-05T04:30:34.065Z,3.40
2019-05-05T04:33:03.855Z,3.30
2019-05-05T04:35:33.819Z,3.20
2019-05-05T04:38:02.101Z,3.30
2019-05-05T04:40:30.397Z,3.30
2019-05-05T04:42:58.434Z,3.30
2019-05-05T04:45:26.496Z,3.30
2019-05-05T04:47:59.366Z,3.30
2019-05-05T04:50:55.823Z,3.30
2019-05-05T04:53:29.664Z,3.30
2019-05-05T04:55:57.812Z,3.30
2019-05-05T04:58:25.885Z,3.30
2019-05-05T05:00:54.679Z,3.20
2019-05-05T05:03:51.313Z,3.20
2019-05-05T05:06:26.740Z,3.30
2019-05-05T05:08:54.595Z,3.40
2019-05-05T05:11:24.562Z,3.40
2019-05-05T05:13:54.383Z,3.50
2019-05-05T05:16:24.149Z,3.50
2019-05-05T05:18:53.762Z,3.50
2019-05-05T05:21:23.661Z,3.50
2019-05-05T05:23:53.453Z,3.60
2019-05-05T05:26:21.603Z,3.60
2019-05-05T05:28:49.651Z,3.60
2019-05-05T05:31:17.610Z,3.70
2019-05-05T05:33:51.561Z,3.70
2019-05-05T05:36:19.502Z,3.70
2019-05-05T05:38:49.873Z,3.80
2019-05-05T05:41:38.094Z,3.90
2019-05-05T05:44:17.364Z,3.90
2019-05-05T05:46:54.638Z,4.00
2019-05-05T05:49:34.640Z,4.50
2019-05-05T05:52:13.474Z,5.80
2019-05-05T05:54:34.024Z,7.00
2019-05-05T05:57:04.326Z,7.90
2019-05-05T05:59:33.981Z,8.10
2019-05-05T06:02:11.564Z,7.90
2019-05-05T06:04:34.072Z,7.90
2019-05-05T06:07:04.057Z,8.20
2019-05-05T06:09:34.275Z,8.70
2019-05-05T06:12:03.592Z,8.70
2019-05-05T06:14:33.864Z,8.60
2019-05-05T06:17:01.516Z,8.50
2019-05-05T06:19:29.641Z,7.90
2019-05-05T06:21:57.591Z,8.10
2019-05-05T06:24:25.536Z,8.10
2019-05-05T06:26:54.698Z,8.70
2019-05-05T06:29:23.889Z,8.80
2019-05-05T06:31:53.774Z,9.50
2019-05-05T06:34:22.035Z,9.20
2019-05-05T06:36:50.091Z,9.40
2019-05-05T06:39:18.064Z,8.50
2019-05-05T06:41:55.692Z,8.40
2019-05-05T06:44:33.894Z,8.80
2019-05-05T06:47:06.788Z,9.80
2019-05-05T06:49:34.769Z,9.80
2019-05-05T06:52:04.055Z,9.20
2019-05-05T06:54:34.632Z,8.70
2019-05-05T06:57:04.335Z,8.00
2019-05-05T06:59:32.301Z,7.80
2019-05-05T07:02:00.227Z,8.30
2019-05-05T07:04:28.165Z,8.00
2019-05-05T07:06:57.143Z,8.30
2019-05-05T07:09:25.389Z,8.40
2019-05-05T07:11:54.100Z,8.10
2019-05-05T07:14:23.620Z,7.50
2019-05-05T07:16:54.323Z,7.50
2019-05-05T07:19:23.933Z,7.10
2019-05-05T07:21:53.779Z,7.00
2019-05-05T07:24:23.885Z,6.70
2019-05-05T07:26:54.153Z,6.50
2019-05-05T07:29:23.916Z,6.60
2019-05-05T07:31:54.517Z,6.80
2019-05-05T07:34:24.403Z,7.10
2019-05-05T07:36:54.646Z,7.20
2019-05-05T07:39:23.749Z,7.00
2019-05-05T07:41:54.152Z,7.10
2019-05-05T07:44:28.441Z,7.00
2019-05-05T07:46:54.201Z,7.10
2019-05-05T07:49:24.272Z,7.30
2019-05-05T07:51:54.627Z,7.50
2019-05-05T07:54:23.637Z,7.90
2019-05-05T07:56:53.865Z,8.20
2019-05-05T07:59:23.847Z,8.40
2019-05-05T08:01:54.695Z,8.60
2019-05-05T08:04:24.291Z,8.60
2019-05-05T08:06:53.829Z,8.50
2019-05-05T08:09:24.637Z,8.40
2019-05-05T08:11:54.174Z,8.70
2019-05-05T08:14:24.369Z,8.80
2019-05-05T08:17:11.881Z,8.90
2019-05-05T08:19:49.322Z,8.80
2019-05-05T08:22:17.346Z,8.90
2019-05-05T08:25:04.901Z,8.70
2019-05-05T08:27:56.043Z,9.00
2019-05-05T08:30:30.279Z,8.90
2019-05-05T08:32:58.430Z,9.00
2019-05-05T08:35:26.522Z,9.40
2019-05-05T08:37:54.723Z,9.40
2019-05-05T08:40:23.956Z,9.10
2019-05-05T08:42:53.952Z,9.10
2019-05-05T08:45:26.163Z,9.30
2019-05-05T08:47:54.328Z,8.90
2019-05-05T08:50:26.787Z,8.70
2019-05-05T08:52:53.707Z,8.90
2019-05-05T08:55:22.027Z,8.90
2019-05-05T08:57:53.993Z,9.40
2019-05-05T09:00:24.316Z,9.70
2019-05-05T09:02:54.168Z,9.10
2019-05-05T09:05:23.801Z,9.00
2019-05-05T09:07:52.081Z,9.40
2019-05-05T09:10:20.223Z,9.30
2019-05-05T09:12:48.723Z,9.40
2019-05-05T09:15:17.011Z,9.70
2019-05-05T09:17:45.251Z,10.00
2019-05-05T09:20:13.854Z,10.60
2019-05-05T09:22:44.415Z,10.10
2019-05-05T09:25:37.645Z,10.00
2019-05-05T09:28:11.984Z,10.40
2019-05-05T09:30:44.397Z,10.20
2019-05-05T09:33:14.261Z,10.30
2019-05-05T09:35:43.693Z,11.00
2019-05-05T09:38:30.369Z,11.60
2019-05-05T09:40:58.725Z,10.90
2019-05-05T09:43:26.774Z,10.80
2019-05-05T09:45:55.039Z,10.30
2019-05-05T09:48:24.278Z,10.30
2019-05-05T09:50:54.061Z,10.80
2019-05-05T09:53:23.779Z,9.90
2019-05-05T09:55:54.610Z,9.80
2019-05-05T09:58:24.210Z,9.60
2019-05-05T10:00:54.586Z,9.50
2019-05-05T10:03:22.394Z,9.60
2019-05-05T10:05:51.041Z,9.90
2019-05-05T10:08:18.982Z,10.10
2019-05-05T10:10:46.947Z,10.00
2019-05-05T10:13:15.157Z,10.10
2019-05-05T10:15:44.374Z,11.00
2019-05-05T10:18:14.071Z,11.20
2019-05-05T10:20:42.325Z,11.30
2019-05-05T10:23:10.300Z,10.60
2019-05-05T10:25:49.379Z,10.50
2019-05-05T10:28:17.781Z,11.10
2019-05-05T10:30:46.590Z,11.10
2019-05-05T10:33:14.583Z,11.30
2019-05-05T10:35:43.747Z,11.20
2019-05-05T10:38:14.098Z,10.60
2019-05-05T10:40:41.893Z,10.10
2019-05-05T10:43:10.001Z,10.00
2019-05-05T10:45:37.939Z,10.50
2019-05-05T10:48:06.555Z,11.10
2019-05-05T10:50:34.666Z,11.90
2019-05-05T10:53:04.574Z,11.40
2019-05-05T10:55:34.653Z,11.10
2019-05-05T10:58:03.284Z,10.60
2019-05-05T11:00:58.758Z,10.90
2019-05-05T11:03:26.789Z,11.50
2019-05-05T11:05:55.081Z,10.60
2019-05-05T11:08:24.173Z,10.50
2019-05-05T11:10:52.375Z,10.30
2019-05-05T11:13:20.519Z,10.20
2019-05-05T11:15:48.616Z,10.20
2019-05-05T11:18:16.857Z,10.40
2019-05-05T11:20:45.064Z,11.00
2019-05-05T11:23:14.820Z,11.40
2019-05-05T11:25:44.243Z,11.30
2019-05-05T11:28:12.636Z,11.20
2019-05-05T11:30:42.786Z,10.90
2019-05-05T11:33:29.850Z,10.20
2019-05-05T11:36:10.638Z,10.20
2019-05-05T11:38:41.446Z,10.20
2019-05-05T11:41:08.980Z,10.30
2019-05-05T11:43:36.867Z,10.50
2019-05-05T11:46:04.948Z,10.60
2019-05-05T11:48:34.477Z,11.40
2019-05-05T11:51:04.495Z,11.60
2019-05-05T11:53:34.004Z,12.40
2019-05-05T11:56:04.184Z,13.00
2019-05-05T11:58:34.036Z,12.80
2019-05-05T12:01:03.724Z,12.70
2019-05-05T12:03:33.960Z,12.30
2019-05-05T12:06:03.928Z,11.30
2019-05-05T12:08:34.312Z,11.60
2019-05-05T12:11:04.840Z,11.70
2019-05-05T12:13:32.746Z,11.70
2019-05-05T12:16:04.738Z,11.20
2019-05-05T12:18:34.318Z,10.80
2019-05-05T12:21:05.104Z,10.70
2019-05-05T12:23:33.985Z,11.30
2019-05-05T12:26:21.502Z,11.40
2019-05-05T12:29:18.122Z,11.30
2019-05-05T12:31:49.308Z,11.50
2019-05-05T12:34:17.496Z,11.60
2019-05-05T12:36:45.997Z,11.20
2019-05-05T12:39:14.417Z,11.10
2019-05-05T12:41:43.389Z,11.10
2019-05-05T12:44:17.009Z,11.40
2019-05-05T12:47:04.551Z,11.60
2019-05-05T12:49:33.816Z,11.10
2019-05-05T12:52:02.008Z,10.70
2019-05-05T12:54:30.496Z,10.90
2019-05-05T12:56:58.626Z,10.90
2019-05-05T12:59:27.160Z,11.20
2019-05-05T13:01:55.710Z,11.60
2019-05-05T13:04:24.594Z,11.20
2019-05-05T13:06:54.051Z,11.10
2019-05-05T13:09:24.389Z,11.60
2019-05-05T13:11:54.196Z,11.90
2019-05-05T13:14:22.508Z,11.80
2019-05-05T13:16:53.173Z,11.80
2019-05-05T13:19:43.728Z,11.90
2019-05-05T13:22:33.670Z,12.10
2019-05-05T13:25:22.167Z,11.70
2019-05-05T13:27:50.540Z,11.40
2019-05-05T13:30:19.382Z,11.60
2019-05-05T13:32:47.760Z,11.60
2019-05-05T13:35:16.355Z,11.90
2019-05-05T13:37:44.480Z,12.30
2019-05-05T13:40:14.158Z,12.60
2019-05-05T13:42:43.871Z,12.90
2019-05-05T13:45:30.611Z,12.10
2019-05-05T13:47:58.581Z,11.60
2019-05-05T13:50:46.968Z,12.10
2019-05-05T13:53:15.292Z,12.10
2019-05-05T13:55:45.979Z,11.30
2019-05-05T13:58:14.695Z,11.50
2019-05-05T14:00:44.111Z,11.20
2019-05-05T14:03:12.156Z,10.90
2019-05-05T14:05:40.222Z,11.20
2019-05-05T14:08:08.196Z,11.50
2019-05-05T14:10:36.209Z,11.40
2019-05-05T14:13:04.437Z,11.20
2019-05-05T14:15:34.165Z,11.20
2019-05-05T14:18:03.989Z,11.10
2019-05-05T14:20:34.328Z,11.10
2019-05-05T14:23:03.872Z,11.30
2019-05-05T14:25:32.270Z,11.60
2019-05-05T14:28:03.725Z,11.60
2019-05-05T14:30:47.557Z,11.30
2019-05-05T14:33:23.554Z,11.20
2019-05-05T14:36:17.314Z,11.20
2019-05-05T14:38:53.962Z,11.10
2019-05-05T14:41:22.353Z,11.50
2019-05-05T14:43:50.362Z,11.70
2019-05-05T14:46:18.379Z,11.70
2019-05-05T14:48:46.631Z,11.60
2019-05-05T14:51:14.757Z,11.60
2019-05-05T14:53:43.778Z,11.60
2019-05-05T14:56:13.581Z,11.00
2019-05-05T14:58:43.720Z,11.10
2019-05-05T15:01:11.722Z,11.40
2019-05-05T15:03:39.916Z,11.20
2019-05-05T15:06:18.021Z,11.30
2019-05-05T15:09:05.740Z,11.60
2019-05-05T15:11:49.567Z,11.80
2019-05-05T15:14:17.580Z,12.00
2019-05-05T15:16:45.984Z,12.20
2019-05-05T15:19:14.519Z,12.80
2019-05-05T15:21:44.286Z,12.60
2019-05-05T15:24:13.808Z,12.40
2019-05-05T15:26:51.248Z,12.20
2019-05-05T15:29:12.194Z,11.40
2019-05-05T15:31:40.145Z,11.40
2019-05-05T15:34:08.126Z,11.40
2019-05-05T15:36:36.078Z,11.30
2019-05-05T15:39:10.736Z,10.90
2019-05-05T15:41:38.704Z,10.90
2019-05-05T15:44:06.808Z,10.90
2019-05-05T15:46:34.808Z,11.00
2019-05-05T15:49:04.161Z,10.90
2019-05-05T15:51:34.221Z,11.10
2019-05-05T15:54:03.912Z,11.20
2019-05-05T15:56:34.096Z,11.50
2019-05-05T15:59:02.334Z,11.70
2019-05-05T16:01:30.347Z,11.70
2019-05-05T16:03:58.408Z,11.90
2019-05-05T16:06:26.689Z,11.70
2019-05-05T16:08:56.690Z,11.60
2019-05-05T16:11:26.878Z,11.90
2019-05-05T16:13:55.443Z,11.90
2019-05-05T16:16:48.724Z,12.20
2019-05-05T16:19:28.128Z,12.00
2019-05-05T16:22:03.879Z,11.80
2019-05-05T16:24:36.476Z,11.90
2019-05-05T16:27:17.932Z,11.60
2019-05-05T16:29:34.610Z,11.60
2019-05-05T16:32:17.888Z,11.90
2019-05-05T16:34:36.515Z,12.20
2019-05-05T16:37:04.616Z,12.40
2019-05-05T16:39:33.546Z,12.20
2019-05-05T16:42:01.858Z,12.40
2019-05-05T16:44:29.857Z,12.60
2019-05-05T16:46:57.776Z,12.70
2019-05-05T16:49:26.138Z,12.20
2019-05-05T16:52:05.542Z,12.00
2019-05-05T16:54:39.163Z,11.80
2019-05-05T16:57:09.992Z,11.80
2019-05-05T16:59:38.043Z,11.40
2019-05-05T17:02:06.307Z,11.40
2019-05-05T17:04:35.632Z,11.10
2019-05-05T17:07:04.108Z,11.10
2019-05-05T17:09:34.328Z,11.10
2019-05-05T17:12:08.766Z,10.90
2019-05-05T17:15:17.306Z,11.20
2019-05-05T17:18:07.706Z,11.10
2019-05-05T17:20:41.716Z,11.00
2019-05-05T17:23:10.668Z,11.00
2019-05-05T17:25:39.287Z,11.20
2019-05-05T17:28:07.339Z,11.20
2019-05-05T17:30:35.495Z,11.20
2019-05-05T17:33:03.852Z,11.30
2019-05-05T17:35:33.679Z,11.30
2019-05-05T17:38:10.889Z,11.30
2019-05-05T17:40:56.855Z,11.30
2019-05-05T17:43:37.241Z,11.30
2019-05-05T17:46:08.734Z,11.20
2019-05-05T17:48:56.599Z,11.10
2019-05-05T17:51:50.472Z,11.20
2019-05-05T17:54:44.574Z,11.00
2019-05-05T17:57:14.258Z,11.00
2019-05-05T17:59:44.126Z,11.00
2019-05-05T18:02:12.674Z,10.90
2019-05-05T18:04:41.322Z,10.70
2019-05-05T18:07:23.707Z,10.70
2019-05-05T18:10:10.210Z,10.60
2019-05-05T18:13:03.656Z,10.60
2019-05-05T18:15:54.421Z,10.50
2019-05-05T18:18:23.446Z,10.40
2019-05-05T18:20:51.557Z,10.30
2019-05-05T18:23:19.795Z,10.30
2019-05-05T18:25:47.821Z,10.40
2019-05-05T18:28:19.967Z,10.30
2019-05-05T18:30:45.947Z,10.10
2019-05-05T18:33:14.150Z,9.90
2019-05-05T18:35:44.237Z,9.80
2019-05-05T18:38:13.717Z,9.80
2019-05-05T18:40:46.261Z,9.60
2019-05-05T18:43:19.804Z,9.50
2019-05-05T18:46:00.256Z,9.20
2019-05-05T18:48:28.972Z,9.20
2019-05-05T18:50:57.094Z,9.10
2019-05-05T18:53:25.475Z,9.00
2019-05-05T18:55:53.990Z,8.90
2019-05-05T18:58:28.159Z,9.00
2019-05-05T19:01:24.180Z,9.00
2019-05-05T19:04:10.455Z,8.80
2019-05-05T19:06:58.115Z,8.60
2019-05-05T19:09:26.183Z,8.50
2019-05-05T19:11:54.654Z,8.50
2019-05-05T19:14:24.141Z,8.50
2019-05-05T19:16:55.239Z,8.40
2019-05-05T19:19:23.992Z,8.30
2019-05-05T19:21:57.272Z,8.40
2019-05-05T19:24:25.366Z,8.40
2019-05-05T19:26:54.192Z,8.30
2019-05-05T19:29:24.272Z,8.10
2019-05-05T19:31:54.624Z,7.70
2019-05-05T19:34:24.065Z,7.70
2019-05-05T19:36:54.497Z,7.70
2019-05-05T19:39:24.238Z,7.70
2019-05-05T19:41:54.327Z,7.70
2019-05-05T19:44:25.910Z,7.60
2019-05-05T19:47:14.545Z,7.30
2019-05-05T19:49:47.143Z,7.10
2019-05-05T19:52:15.148Z,7.00
2019-05-05T19:54:47.310Z,7.00
2019-05-05T19:57:14.432Z,7.10
2019-05-05T19:59:44.664Z,7.10
2019-05-05T20:02:12.849Z,7.00
2019-05-05T20:04:40.887Z,6.90
2019-05-05T20:07:08.956Z,6.80
2019-05-05T20:09:37.247Z,6.90
2019-05-05T20:12:05.458Z,6.80
2019-05-05T20:14:34.213Z,6.70
2019-05-05T20:17:11.007Z,6.60
2019-05-05T20:19:43.970Z,6.60
2019-05-05T20:22:14.739Z,6.70
2019-05-05T20:24:44.373Z,6.80
2019-05-05T20:27:14.066Z,6.80
2019-05-05T20:29:42.707Z,6.70
2019-05-05T20:32:11.070Z,6.70
2019-05-05T20:34:44.924Z,6.60
2019-05-05T20:37:18.143Z,6.60
2019-05-05T20:39:46.113Z,6.60
2019-05-05T20:42:14.991Z,7.00
2019-05-05T20:44:43.920Z,7.10
2019-05-05T20:47:12.520Z,7.00
2019-05-05T20:49:40.579Z,6.90
2019-05-05T20:52:08.603Z,6.90
2019-05-05T20:54:37.283Z,6.90
2019-05-05T20:57:05.325Z,7.00
2019-05-05T20:59:34.293Z,7.00
2019-05-05T21:02:04.752Z,7.10
2019-05-05T21:04:34.499Z,7.00
2019-05-05T21:07:04.427Z,7.00
2019-05-05T21:09:34.491Z,7.00
2019-05-05T21:12:04.475Z,7.00
2019-05-05T21:14:37.213Z,7.10
2019-05-05T21:17:04.017Z,7.20
2019-05-05T21:19:34.479Z,7.30
2019-05-05T21:22:21.942Z,7.20
2019-05-05T21:24:51.128Z,7.20
2019-05-05T21:27:19.460Z,7.30
2019-05-05T21:29:47.875Z,7.60
2019-05-05T21:32:16.225Z,7.70
2019-05-05T21:34:44.541Z,7.90
2019-05-05T21:37:14.200Z,8.00
2019-05-05T21:39:42.400Z,8.10
2019-05-05T21:42:10.412Z,8.30
2019-05-05T21:44:38.841Z,8.40
2019-05-05T21:47:06.904Z,8.50
2019-05-05T21:49:34.816Z,8.50
2019-05-05T21:52:28.380Z,8.50
2019-05-05T21:55:06.746Z,8.50
2019-05-05T21:57:55.751Z,8.50
2019-05-05T22:00:44.232Z,8.50
2019-05-05T22:03:15.722Z,8.50
2019-05-05T22:05:44.551Z,8.50
2019-05-05T22:08:14.350Z,8.50
2019-05-05T22:10:42.423Z,8.50
2019-05-05T22:13:11.032Z,8.50
2019-05-05T22:15:39.085Z,8.50
2019-05-05T22:18:07.236Z,8.50
2019-05-05T22:20:41.159Z,8.50
2019-05-05T22:23:09.120Z,8.50
2019-05-05T22:25:37.533Z,8.50
2019-05-05T22:28:05.980Z,8.50
2019-05-05T22:30:34.797Z,8.50
2019-05-05T22:33:05.719Z,8.40
2019-05-05T22:35:34.875Z,8.40
2019-05-05T22:38:05.803Z,8.40
2019-05-05T22:40:34.607Z,8.40
2019-05-05T22:43:03.659Z,8.20
2019-05-05T22:45:34.106Z,8.20
2019-05-05T22:48:04.534Z,8.10
2019-05-05T22:50:34.041Z,8.20
2019-05-05T22:53:02.721Z,8.10
2019-05-05T22:55:34.245Z,8.30
2019-05-05T22:58:03.994Z,8.20
2019-05-05T23:00:34.632Z,8.20
2019-05-05T23:03:09.460Z,8.20
2019-05-05T23:05:59.147Z,8.20
2019-05-05T23:08:27.138Z,8.30
2019-05-05T23:10:55.361Z,8.20
2019-05-05T23:13:23.849Z,8.30
2019-05-05T23:16:03.993Z,8.40
2019-05-05T23:18:31.889Z,8.30
2019-05-05T23:21:18.501Z,8.30
2019-05-05T23:24:14.181Z,8.20
2019-05-05T23:26:43.775Z,8.10
2019-05-05T23:29:12.127Z,8.10
2019-05-05T23:31:40.202Z,8.10
2019-05-05T23:34:08.272Z,8.10
2019-05-05T23:36:36.248Z,8.10
2019-05-05T23:39:06.492Z,8.10
2019-05-05T23:41:35.451Z,7.90
2019-05-05T23:44:04.328Z,7.80
2019-05-05T23:46:34.862Z,7.80
2019-05-05T23:49:04.321Z,7.70
2019-05-05T23:51:34.603Z,7.80
2019-05-05T23:54:04.205Z,7.90
2019-05-05T23:56:34.956Z,7.90
2019-05-05T23:59:04.253Z,7.80
